Terminal Aerodrome Forecast
Issued by NWS Shreveport, LA

Home | Current Version | Previous Version | Text Only | Print | Product List | Glossary On
Versions: 1 2 3 4 5 6 7 8 9 10 11 12 13 14 15 16 17 18 19 20 21 22 23 24 25 26
000
FTUS44 KSHV 260719 AAB
TAFSHV
TAF AMD
KSHV 260719Z 2607/2706 VRB03KT P6SM -TSRA SCT009CB SCT016 BKN110
      TEMPO 2608/2612 15009KT 5SM BR BKN015
     FM261200 19007KT 5SM BR OVC015
     FM261500 21013KT P6SM BKN025
     FM261800 22010KT P6SM SCT035=

USA.gov is the U.S. government's official web portal to all federal, state and local government web resources and services.